Kg Daf — VROG8 — position and weather

sailwx.info

Track history (hours):
 
Tides and Currents Weather Stations Pressure Air Temp Water Temp Dewpoint Dewpoint Depression Visibility Wind Speed Wind Dir Waves Ship Positions

Kg Daf

Last reported at 2018-Feb-15 02:05 UTC. Time now 2018-Feb-20 01:20 UTC.
Position N 23°17' E 117°47'.

Type: Cargo ship. MMSI: 401010000.

Date/timePositionNaut miles runAvg speedWind from/ knotsBaromVisibWave heightAir tempDewpointWater temp
2018-Feb-15 02:05N 23°17' E 117°47'  
2018-Feb-11 23:45N 22°19' E 114°07'62 2.0
2018-Feb-10 16:42N 22°11' E 115°13'416.1
2018-Feb-10 16:27N 22°11' E 115°17'1016.0
2018-Feb-10 15:48N 22°13' E 115°28'915.9
2018-Feb-10 15:13N 22°14' E 115°38'516.2
2018-Feb-10 14:56N 22°14' E 115°43'716.2
2018-Feb-10 14:28N 22°14' E 115°51'1816.1
2018-Feb-10 13:21N 22°18' E 116°10'4814.6
2018-Feb-10 10:02N 22°42' E 116°56'10015.1
2018-Feb-10 03:23N 23°49' E 118°17'815.9
2018-Feb-10 02:54N 23°56' E 118°18'716.2
2018-Feb-10 02:27N 24°03' E 118°20'715.5
2018-Feb-10 02:00N 24°10' E 118°20'510.6
2018-Feb-10 01:30N 24°14' E 118°16'5 9.6
2018-Feb-10 01:00N 24°18' E 118°13'5 9.3
2018-Feb-10 00:30N 24°21' E 118°09'5 9.3
2018-Feb-10 00:00N 24°25' E 118°05'4 8.7
2018-Feb-09 23:30N 24°26' E 118°01'1 1.7
2018-Feb-09 22:59N 24°27' E 118°00'0 0.0
2018-Feb-09 22:44N 24°27' E 118°00'1 0.1
2018-Feb-08 23:31N 24°26' E 118°02'1110.6
2018-Feb-08 22:31N 24°20' E 118°11'13 8.9
2018-Feb-08 21:00N 24°11' E 118°21'1312.6
2018-Feb-08 20:00N 24°16' E 118°34'815.4
2018-Feb-08 19:30N 24°17' E 118°42'83616.6
2018-Feb-06 17:09N 34°21' E 129°44'515.7
2018-Feb-06 16:52N 34°25' E 129°48'515.5
2018-Feb-06 16:30N 34°28' E 129°53'815.5
2018-Feb-06 16:00N 34°33' E 130°00'915.9
2018-Feb-06 15:28N 34°39' E 130°08'  
Track history (hours):
 
Tides and Currents Weather Stations Pressure Air Temp Water Temp Dewpoint Dewpoint Depression Visibility Wind Speed Wind Dir Waves Ship Positions

Kg Daf

Last reported at 2018-Feb-15 02:05 UTC. Time now 2018-Feb-20 01:20 UTC.
Position N 23°17' E 117°47'.

Type: Cargo ship. MMSI: 401010000.

Date/timePositionNaut miles runAvg speedWind from/ knotsBaromVisibWave heightAir tempDewpointWater temp
2018-Feb-15 02:05N 23°17' E 117°47'  
2018-Feb-11 23:45N 22°19' E 114°07'62 2.0
2018-Feb-10 16:42N 22°11' E 115°13'416.1
2018-Feb-10 16:27N 22°11' E 115°17'1016.0
2018-Feb-10 15:48N 22°13' E 115°28'915.9
2018-Feb-10 15:13N 22°14' E 115°38'516.2
2018-Feb-10 14:56N 22°14' E 115°43'716.2
2018-Feb-10 14:28N 22°14' E 115°51'1816.1
2018-Feb-10 13:21N 22°18' E 116°10'4814.6
2018-Feb-10 10:02N 22°42' E 116°56'10015.1
2018-Feb-10 03:23N 23°49' E 118°17'815.9
2018-Feb-10 02:54N 23°56' E 118°18'716.2
2018-Feb-10 02:27N 24°03' E 118°20'715.5
2018-Feb-10 02:00N 24°10' E 118°20'510.6
2018-Feb-10 01:30N 24°14' E 118°16'5 9.6
2018-Feb-10 01:00N 24°18' E 118°13'5 9.3
2018-Feb-10 00:30N 24°21' E 118°09'5 9.3
2018-Feb-10 00:00N 24°25' E 118°05'4 8.7
2018-Feb-09 23:30N 24°26' E 118°01'1 1.7
2018-Feb-09 22:59N 24°27' E 118°00'0 0.0
2018-Feb-09 22:44N 24°27' E 118°00'1 0.1
2018-Feb-08 23:31N 24°26' E 118°02'1110.6
2018-Feb-08 22:31N 24°20' E 118°11'13 8.9
2018-Feb-08 21:00N 24°11' E 118°21'1312.6
2018-Feb-08 20:00N 24°16' E 118°34'815.4
2018-Feb-08 19:30N 24°17' E 118°42'83616.6
2018-Feb-06 17:09N 34°21' E 129°44'515.7
2018-Feb-06 16:52N 34°25' E 129°48'515.5
2018-Feb-06 16:30N 34°28' E 129°53'815.5
2018-Feb-06 16:00N 34°33' E 130°00'915.9
2018-Feb-06 15:28N 34°39' E 130°08'  

Dump ship's entire track history